createdAt,value
2022-10-23T00:04:30.771Z,12.74
2022-10-23T00:09:32.268Z,12.74
2022-10-23T00:14:33.785Z,12.79
2022-10-23T00:19:35.286Z,12.67
2022-10-23T00:24:36.838Z,12.58
2022-10-23T00:29:38.329Z,12.68
2022-10-23T00:34:41.224Z,12.60
2022-10-23T00:39:42.778Z,12.55
2022-10-23T00:44:44.187Z,12.61
2022-10-23T00:49:45.739Z,12.59
2022-10-23T00:54:47.288Z,12.56
2022-10-23T00:59:48.772Z,12.51
2022-10-23T01:04:51.046Z,12.59
2022-10-23T01:10:04.494Z,12.46
2022-10-23T01:15:13.477Z,12.53
2022-10-23T01:20:41.076Z,12.41
2022-10-23T01:25:57.431Z,12.46
2022-10-23T01:31:01.048Z,12.43
2022-10-23T01:36:12.843Z,12.21
2022-10-23T01:41:19.756Z,12.40
2022-10-23T01:46:22.058Z,12.10
2022-10-23T01:51:26.170Z,12.29
2022-10-23T01:56:33.205Z,12.23
2022-10-23T02:01:35.385Z,12.18
2022-10-23T02:06:36.983Z,12.24
2022-10-23T02:11:44.620Z,12.27
2022-10-23T02:16:54.315Z,12.29
2022-10-23T02:22:03.900Z,12.21
2022-10-23T02:27:12.013Z,12.28
2022-10-23T02:32:14.683Z,12.23
2022-10-23T02:37:16.620Z,12.08
2022-10-23T02:42:22.500Z,11.99
2022-10-23T02:47:31.235Z,12.07
2022-10-23T02:53:18.918Z,12.02
2022-10-23T02:58:34.971Z,12.00
2022-10-23T03:03:41.582Z,12.03
2022-10-23T03:08:58.433Z,12.12
2022-10-23T03:14:01.734Z,12.13
2022-10-23T03:19:04.331Z,12.12
2022-10-23T03:24:06.152Z,12.12
2022-10-23T03:29:12.989Z,12.07
2022-10-23T03:34:19.325Z,12.08
2022-10-23T03:39:21.691Z,12.03
2022-10-23T03:44:23.290Z,12.08
2022-10-23T03:49:24.803Z,12.03
2022-10-23T03:54:27.678Z,11.96
2022-10-23T03:59:29.437Z,12.00
2022-10-23T04:04:31.378Z,11.95
2022-10-23T04:09:34.342Z,11.90
2022-10-23T04:14:38.212Z,11.85
2022-10-23T04:19:39.712Z,11.82
2022-10-23T04:24:46.487Z,11.70
2022-10-23T04:29:55.479Z,11.83
2022-10-23T04:34:59.817Z,11.92
2022-10-23T04:40:01.372Z,11.55
2022-10-23T04:45:03.591Z,11.66
2022-10-23T04:50:06.149Z,11.69
2022-10-23T04:55:30.197Z,11.82
2022-10-23T05:00:51.687Z,11.84
2022-10-23T05:05:58.424Z,11.60
2022-10-23T05:11:06.527Z,11.83
2022-10-23T05:16:39.380Z,11.63
2022-10-23T05:21:41.506Z,11.65
2022-10-23T05:26:43.670Z,11.57
2022-10-23T05:31:45.630Z,11.80
2022-10-23T05:36:47.893Z,11.57
2022-10-23T05:41:51.165Z,11.83
2022-10-23T05:46:56.544Z,11.82
2022-10-23T05:52:20.508Z,11.85
2022-10-23T05:57:40.015Z,11.83
2022-10-23T06:02:44.931Z,11.73
2022-10-23T06:08:12.600Z,11.84
2022-10-23T06:13:15.244Z,11.90
2022-10-23T06:18:16.978Z,11.98
2022-10-23T06:23:30.741Z,11.85
2022-10-23T06:28:50.956Z,11.78
2022-10-23T06:33:53.661Z,11.95
2022-10-23T06:38:56.464Z,12.12
2022-10-23T06:44:10.172Z,12.20
2022-10-23T06:49:23.458Z,12.21
2022-10-23T06:54:25.107Z,12.27
2022-10-23T06:59:45.370Z,12.45
2022-10-23T07:04:47.115Z,12.38
2022-10-23T07:09:52.803Z,12.56
2022-10-23T07:15:20.289Z,12.73
2022-10-23T07:20:22.172Z,12.77
2022-10-23T07:25:26.128Z,12.88
2022-10-23T07:30:28.082Z,12.93
2022-10-23T07:35:33.014Z,13.08
2022-10-23T07:40:44.303Z,13.01
2022-10-23T07:45:49.586Z,13.17
2022-10-23T07:51:03.051Z,13.24
2022-10-23T07:56:13.450Z,13.32
2022-10-23T08:01:37.891Z,13.39
2022-10-23T08:06:39.634Z,13.48
2022-10-23T08:11:42.206Z,13.53
2022-10-23T08:16:45.511Z,13.54
2022-10-23T08:21:47.057Z,13.57
2022-10-23T08:26:50.276Z,13.64
2022-10-23T08:31:57.357Z,13.62
2022-10-23T08:37:02.900Z,13.68
2022-10-23T08:42:05.423Z,13.72
2022-10-23T08:47:30.292Z,13.80
2022-10-23T08:52:55.430Z,13.83
2022-10-23T08:58:24.739Z,13.87
2022-10-23T09:03:27.583Z,13.98
2022-10-23T09:08:38.543Z,14.04
2022-10-23T09:14:03.114Z,14.10
2022-10-23T09:19:14.462Z,14.29
2022-10-23T09:24:18.864Z,14.33
2022-10-23T09:29:32.868Z,14.47
2022-10-23T09:34:35.082Z,14.66
2022-10-23T09:39:36.761Z,14.74
2022-10-23T09:44:48.227Z,14.89
2022-10-23T09:49:52.901Z,14.94
2022-10-23T09:54:57.250Z,14.91
2022-10-23T10:00:14.701Z,14.96
2022-10-23T10:05:33.163Z,15.04
2022-10-23T10:10:39.563Z,14.98
2022-10-23T10:15:52.075Z,15.02
2022-10-23T10:21:11.696Z,14.99
2022-10-23T10:26:16.236Z,15.10
2022-10-23T10:31:31.090Z,15.11
2022-10-23T10:36:53.503Z,15.18
2022-10-23T10:42:24.445Z,15.19
2022-10-23T10:48:03.277Z,15.18
2022-10-23T10:53:44.976Z,15.21
2022-10-23T10:58:55.414Z,15.23
2022-10-23T11:04:05.490Z,15.22
2022-10-23T11:09:21.589Z,15.29
2022-10-23T11:14:26.222Z,15.39
2022-10-23T11:19:31.151Z,15.39
2022-10-23T11:25:12.180Z,15.43
2022-10-23T11:30:24.322Z,15.43
2022-10-23T11:35:49.415Z,15.45
2022-10-23T11:40:53.969Z,15.49
2022-10-23T11:45:55.464Z,15.53
2022-10-23T11:50:59.098Z,15.46
2022-10-23T11:56:06.712Z,15.43
2022-10-23T12:01:30.304Z,15.44
2022-10-23T12:06:46.446Z,15.44
2022-10-23T12:11:51.352Z,15.42
2022-10-23T12:16:52.857Z,15.40
2022-10-23T12:21:57.655Z,15.40
2022-10-23T12:27:04.760Z,15.42
2022-10-23T12:32:25.883Z,15.42
2022-10-23T12:37:51.539Z,15.49
2022-10-23T12:42:55.114Z,15.53
2022-10-23T12:47:56.982Z,15.57
2022-10-23T12:53:01.142Z,15.58
2022-10-23T12:58:03.804Z,15.60
2022-10-23T13:03:05.306Z,15.59
2022-10-23T13:08:06.979Z,15.61
2022-10-23T13:13:23.850Z,15.63
2022-10-23T13:18:25.393Z,15.63
2022-10-23T13:23:32.026Z,15.64
2022-10-23T13:28:35.239Z,15.64
2022-10-23T13:33:42.780Z,15.64
2022-10-23T13:39:08.886Z,15.65
2022-10-23T13:44:12.403Z,15.64
2022-10-23T13:49:14.229Z,15.68
2022-10-23T13:54:19.329Z,15.69
2022-10-23T13:59:21.676Z,15.69
2022-10-23T14:04:23.927Z,15.71
2022-10-23T14:09:25.579Z,15.69
2022-10-23T14:14:27.072Z,15.69
2022-10-23T14:19:28.606Z,15.65
2022-10-23T14:24:30.116Z,15.64
2022-10-23T14:29:31.651Z,15.61
2022-10-23T14:34:33.362Z,15.58
2022-10-23T14:39:34.996Z,15.57
2022-10-23T14:44:36.483Z,15.56
2022-10-23T14:49:40.069Z,15.54
2022-10-23T14:54:41.984Z,15.52
2022-10-23T14:59:43.879Z,15.49
2022-10-23T15:04:45.419Z,15.41
2022-10-23T15:09:46.946Z,15.35
2022-10-23T15:14:48.484Z,15.37
2022-10-23T15:19:50.045Z,15.35
2022-10-23T15:24:52.112Z,15.31
2022-10-23T15:29:53.612Z,15.31
2022-10-23T15:34:56.632Z,15.28
2022-10-23T15:40:01.223Z,15.27
2022-10-23T15:45:04.191Z,15.25
2022-10-23T15:50:06.178Z,15.28
2022-10-23T15:55:11.557Z,15.24
2022-10-23T16:00:15.881Z,15.22
2022-10-23T16:05:19.795Z,15.21
2022-10-23T16:10:21.386Z,15.20
2022-10-23T16:15:22.906Z,15.21
2022-10-23T16:20:24.402Z,15.18
2022-10-23T16:25:25.962Z,15.19
2022-10-23T16:30:27.477Z,15.19
2022-10-23T16:35:31.035Z,15.17
2022-10-23T16:40:41.720Z,15.15
2022-10-23T16:46:18.772Z,15.16
2022-10-23T16:51:22.394Z,15.12
2022-10-23T16:56:25.412Z,15.13
2022-10-23T17:01:29.806Z,15.12
2022-10-23T17:06:32.813Z,15.13
2022-10-23T17:11:39.305Z,15.14
2022-10-23T17:16:44.558Z,15.14
2022-10-23T17:21:46.191Z,15.11
2022-10-23T17:26:48.811Z,15.10
2022-10-23T17:31:51.191Z,15.12
2022-10-23T17:36:54.567Z,15.14
2022-10-23T17:41:56.394Z,15.12
2022-10-23T17:46:57.955Z,15.13
2022-10-23T17:51:59.507Z,15.10
2022-10-23T17:57:00.992Z,15.07
2022-10-23T18:02:02.615Z,15.05
2022-10-23T18:07:04.329Z,15.03
2022-10-23T18:12:05.890Z,15.05
2022-10-23T18:17:07.538Z,15.02
2022-10-23T18:22:09.162Z,14.99
2022-10-23T18:27:10.718Z,14.97
2022-10-23T18:32:12.277Z,14.98
2022-10-23T18:37:13.858Z,14.99
2022-10-23T18:42:15.402Z,15.00
2022-10-23T18:52:23.526Z,15.00
2022-10-23T18:57:25.091Z,15.02
2022-10-23T19:02:27.095Z,15.00
2022-10-23T19:07:28.650Z,14.99
2022-10-23T19:12:30.207Z,14.98
2022-10-23T19:17:32.444Z,14.97
2022-10-23T19:22:34.994Z,15.00
2022-10-23T19:27:37.666Z,15.03
2022-10-23T19:32:40.775Z,15.04
2022-10-23T19:37:42.654Z,15.09
2022-10-23T19:42:44.459Z,15.08
2022-10-23T19:47:46.279Z,15.11
2022-10-23T19:52:48.108Z,15.10
2022-10-23T19:57:49.607Z,15.10
2022-10-23T20:02:54.374Z,15.16
2022-10-23T20:07:57.035Z,15.18
2022-10-23T20:13:15.119Z,15.17
2022-10-23T20:18:20.089Z,15.18
2022-10-23T20:23:21.643Z,15.25
2022-10-23T20:28:23.111Z,15.25
2022-10-23T20:33:24.617Z,15.23
2022-10-23T20:38:26.114Z,15.27
2022-10-23T20:43:27.678Z,15.29
2022-10-23T20:48:29.192Z,15.30
2022-10-23T20:53:31.291Z,15.32
2022-10-23T20:58:32.903Z,15.35
2022-10-23T21:03:34.551Z,15.32
2022-10-23T21:08:36.853Z,15.39
2022-10-23T21:13:38.534Z,15.39
2022-10-23T21:18:45.918Z,15.41
2022-10-23T21:23:50.033Z,15.40
2022-10-23T21:28:56.068Z,15.43
2022-10-23T21:34:08.409Z,15.37
2022-10-23T21:39:09.947Z,15.34
2022-10-23T21:44:13.463Z,15.37
2022-10-23T21:49:15.273Z,15.25
2022-10-23T21:54:16.783Z,15.36
2022-10-23T21:59:20.916Z,15.28
2022-10-23T22:04:22.403Z,15.36
2022-10-23T22:09:24.352Z,15.34
2022-10-23T22:14:26.992Z,15.15
2022-10-23T22:19:28.609Z,15.17
2022-10-23T22:24:30.091Z,15.13
2022-10-23T22:29:31.568Z,15.23
2022-10-23T22:34:53.067Z,15.28
2022-10-23T22:39:54.697Z,15.28
2022-10-23T22:44:56.230Z,15.25
2022-10-23T22:49:57.698Z,15.28
2022-10-23T22:54:59.223Z,15.22
2022-10-23T23:00:00.702Z,15.10
2022-10-23T23:05:02.186Z,15.23
2022-10-23T23:10:04.648Z,15.22
2022-10-23T23:15:06.614Z,15.22
2022-10-23T23:20:08.711Z,15.18
2022-10-23T23:25:10.277Z,15.14
2022-10-23T23:30:11.915Z,15.14
2022-10-23T23:35:13.521Z,15.12
2022-10-23T23:40:15.025Z,15.05
2022-10-23T23:45:16.586Z,15.06
2022-10-23T23:50:18.128Z,14.98
2022-10-23T23:55:19.690Z,14.95
